Time;durP1;ratioP1;P1;durP2;ratioP2;P2;SDS_P1;SDS_P2;PMS_P1;PMS_P2;Temp;Humidity;BMP_temperature;BMP_pressure;BME280_temperature;BME280_humidity;BME280_pressure;Samples;Min_cycle;Max_cycle;Signal;HPM_P1;HPM_P2
2021/04/29 00:01:27;;;;;;;8.55;6.35;;;9.10;89.60;;;;;;5057093;28;20204;-61
2021/04/29 00:03:54;;;;;;;7.20;6.50;;;9.20;89.70;;;;;;5053733;28;20200;-62
2021/04/29 00:06:21;;;;;;;9.13;6.28;;;9.10;89.90;;;;;;5056095;28;20206;-63
2021/04/29 00:08:47;;;;;;;10.70;7.18;;;9.00;90.50;;;;;;5055664;28;20232;-62
2021/04/29 00:11:14;;;;;;;9.52;6.75;;;9.00;90.40;;;;;;5055026;28;20226;-61
2021/04/29 00:13:41;;;;;;;14.95;7.38;;;8.80;90.70;;;;;;5049735;28;20208;-61
2021/04/29 00:16:07;;;;;;;6.65;5.85;;;8.90;90.50;;;;;;5051507;28;20214;-62
2021/04/29 00:18:34;;;;;;;8.90;7.20;;;8.90;90.60;;;;;;5051745;28;20231;-61
2021/04/29 00:21:01;;;;;;;11.65;6.70;;;8.90;90.70;;;;;;5058544;28;20281;-62
2021/04/29 00:23:29;;;;;;;7.22;6.03;;;8.80;91.00;;;;;;5059771;28;20215;-61
2021/04/29 00:25:56;;;;;;;7.55;6.40;;;8.80;91.10;;;;;;5060402;28;20215;-61
2021/04/29 00:28:23;;;;;;;8.95;5.95;;;8.80;91.30;;;;;;5059841;28;20453;-61
2021/04/29 00:30:50;;;;;;;6.60;5.95;;;9.00;90.70;;;;;;5052483;28;20208;-62
2021/04/29 00:33:17;;;;;;;5.63;4.88;;;8.90;91.00;;;;;;5059864;28;20211;-61
2021/04/29 00:35:44;;;;;;;9.90;6.20;;;8.90;90.90;;;;;;5053823;28;20422;-62
2021/04/29 00:38:10;;;;;;;6.30;5.10;;;8.90;90.90;;;;;;5062740;28;20287;-61
2021/04/29 00:40:38;;;;;;;9.52;6.93;;;8.80;91.10;;;;;;5053899;28;20211;-61
2021/04/29 00:43:04;;;;;;;8.25;7.40;;;8.80;91.20;;;;;;5056880;28;20271;-61
2021/04/29 00:45:31;;;;;;;8.13;5.68;;;8.80;91.10;;;;;;5059880;28;20221;-61
2021/04/29 00:47:57;;;;;;;14.60;7.10;;;8.90;90.90;;;;;;5061279;28;20246;-62
2021/04/29 00:50:25;;;;;;;5.80;5.30;;;8.90;90.80;;;;;;5059474;28;20205;-62
2021/04/29 00:52:52;;;;;;;7.15;5.47;;;8.90;90.70;;;;;;5061891;28;20248;-61
2021/04/29 00:55:19;;;;;;;10.40;6.47;;;9.00;90.50;;;;;;5060464;28;20205;-62
2021/04/29 00:57:45;;;;;;;9.02;6.70;;;9.00;90.40;;;;;;5059277;28;20205;-61
2021/04/29 01:00:13;;;;;;;11.27;6.63;;;8.90;90.50;;;;;;5059404;28;20701;-61
2021/04/29 01:03:11;;;;;;;10.45;7.90;;;8.90;90.40;;;;;;5059067;28;20261;-61
2021/04/29 01:05:50;;;;;;;11.32;7.80;;;8.90;90.50;;;;;;5042455;28;20737;-63
2021/04/29 01:08:26;;;;;;;10.80;7.80;;;8.90;90.40;;;;;;5058894;28;20220;-60
2021/04/29 01:11:07;;;;;;;7.75;6.55;;;8.70;90.70;;;;;;5059666;28;20203;-61
2021/04/29 01:13:38;;;;;;;9.32;6.60;;;8.60;90.80;;;;;;5049680;28;20203;-60
2021/04/29 01:16:06;;;;;;;7.60;6.72;;;8.70;90.60;;;;;;5061157;28;20198;-62
2021/04/29 01:18:33;;;;;;;10.07;7.18;;;8.70;90.70;;;;;;5059580;28;20271;-61
2021/04/29 01:21:03;;;;;;;8.50;7.40;;;8.60;90.80;;;;;;5058988;28;20222;-61
2021/04/29 01:23:45;;;;;;;10.73;7.35;;;8.70;90.80;;;;;;5056231;28;20209;-61
2021/04/29 01:26:25;;;;;;;9.10;6.53;;;8.60;90.90;;;;;;5059509;28;20250;-60
2021/04/29 01:28:53;;;;;;;12.43;7.40;;;8.60;91.00;;;;;;5058987;28;20532;-61
2021/04/29 01:31:24;;;;;;;8.82;6.88;;;8.50;91.10;;;;;;5056870;28;20213;-61
2021/04/29 01:33:52;;;;;;;9.13;6.90;;;8.50;91.20;;;;;;5057234;28;20204;-61
2021/04/29 01:36:21;;;;;;;8.35;6.70;;;8.70;91.40;;;;;;5059516;28;20291;-62
2021/04/29 01:38:48;;;;;;;11.15;8.95;;;8.60;91.00;;;;;;5059058;28;20219;-62
2021/04/29 01:41:15;;;;;;;11.13;7.85;;;8.40;91.30;;;;;;5058998;28;20220;-61
2021/04/29 01:43:42;;;;;;;11.10;7.32;;;8.40;91.20;;;;;;5059661;28;20213;-61
2021/04/29 01:46:10;;;;;;;10.15;7.38;;;8.40;91.30;;;;;;5053598;28;20230;-61
2021/04/29 01:48:37;;;;;;;11.52;7.55;;;8.40;91.20;;;;;;5058193;28;20395;-63
2021/04/29 01:51:05;;;;;;;9.80;6.90;;;8.50;91.20;;;;;;5058371;28;20223;-62
2021/04/29 01:53:31;;;;;;;12.02;7.55;;;8.50;91.30;;;;;;5056782;28;20212;-62
2021/04/29 01:55:58;;;;;;;14.85;8.70;;;8.40;91.60;;;;;;5056250;28;20208;-61
2021/04/29 01:58:25;;;;;;;12.52;9.55;;;8.40;91.50;;;;;;5055135;28;20207;-61
2021/04/29 02:00:52;;;;;;;16.95;8.57;;;8.40;91.60;;;;;;5056773;28;20223;-63
2021/04/29 02:03:20;;;;;;;12.55;7.95;;;8.40;91.70;;;;;;5055244;28;20270;-63
2021/04/29 02:05:46;;;;;;;13.80;9.30;;;8.40;91.70;;;;;;5058134;28;20246;-61
2021/04/29 02:08:13;;;;;;;12.88;9.07;;;8.40;91.70;;;;;;5055514;28;20234;-62
2021/04/29 02:10:39;;;;;;;14.57;10.35;;;8.30;91.80;;;;;;5052749;28;20215;-61
2021/04/29 02:13:12;;;;;;;13.00;8.50;;;8.30;91.90;;;;;;5058551;28;20211;-63
2021/04/29 02:15:42;;;;;;;13.68;8.88;;;8.30;92.10;;;;;;5055033;28;20203;-61
2021/04/29 02:18:12;;;;;;;10.70;8.88;;;8.30;91.90;;;;;;5049304;28;20213;-61
2021/04/29 02:20:41;;;;;;;12.85;8.55;;;8.20;92.10;;;;;;5053754;28;20536;-61
2021/04/29 02:23:12;;;;;;;15.70;8.90;;;8.20;92.30;;;;;;5052729;28;20230;-63
2021/04/29 02:25:42;;;;;;;10.18;7.70;;;8.20;92.00;;;;;;5058466;28;20830;-62
2021/04/29 02:28:09;;;;;;;8.80;6.60;;;8.20;92.30;;;;;;5057233;28;20745;-63
2021/04/29 02:30:35;;;;;;;11.20;7.75;;;8.10;92.40;;;;;;5058499;28;20207;-62
2021/04/29 02:33:05;;;;;;;19.67;9.05;;;8.10;92.60;;;;;;5055296;28;20212;-61
2021/04/29 02:35:32;;;;;;;10.45;8.40;;;8.00;92.80;;;;;;5050158;28;20211;-62
2021/04/29 02:37:59;;;;;;;11.85;7.97;;;8.00;92.70;;;;;;5050549;28;20217;-62
2021/04/29 02:40:27;;;;;;;8.85;7.43;;;8.00;92.80;;;;;;5052535;28;20204;-62
2021/04/29 02:43:04;;;;;;;12.73;9.80;;;7.90;93.00;;;;;;5053387;28;20208;-61
2021/04/29 02:45:31;;;;;;;9.52;6.78;;;7.90;93.00;;;;;;5054496;28;20231;-63
2021/04/29 02:47:58;;;;;;;14.18;8.88;;;7.90;93.00;;;;;;5054925;28;20250;-61
2021/04/29 02:50:26;;;;;;;8.77;7.88;;;7.60;93.30;;;;;;5055720;28;20367;-61
2021/04/29 02:52:53;;;;;;;10.55;7.75;;;7.80;93.30;;;;;;5059081;28;20231;-61
2021/04/29 02:55:22;;;;;;;12.35;8.18;;;7.60;93.40;;;;;;5057138;28;20302;-62
2021/04/29 02:57:49;;;;;;;13.68;8.35;;;7.70;93.40;;;;;;5054337;28;20420;-62
2021/04/29 03:00:18;;;;;;;12.82;9.00;;;7.80;93.20;;;;;;5057363;28;20226;-61
2021/04/29 03:02:44;;;;;;;9.90;8.13;;;7.70;93.40;;;;;;5054278;28;20214;-61
2021/04/29 03:05:14;;;;;;;11.80;7.72;;;7.70;93.40;;;;;;5051636;28;20518;-61
2021/04/29 03:07:42;;;;;;;11.30;7.40;;;7.80;93.30;;;;;;5057889;28;20411;-62
2021/04/29 03:10:11;;;;;;;8.13;7.32;;;7.80;93.20;;;;;;5055311;28;20196;-63
2021/04/29 03:12:38;;;;;;;12.50;7.50;;;7.70;93.50;;;;;;5053979;28;20203;-62
2021/04/29 03:15:06;;;;;;;19.67;8.45;;;7.70;93.30;;;;;;5055227;28;20203;-62
2021/04/29 03:17:33;;;;;;;13.82;8.27;;;7.70;93.30;;;;;;5055634;28;20195;-62
2021/04/29 03:20:00;;;;;;;10.10;6.57;;;7.70;93.30;;;;;;5057473;28;20210;-61
2021/04/29 03:22:27;;;;;;;9.93;7.35;;;7.70;93.20;;;;;;5056589;28;20208;-61
2021/04/29 03:24:54;;;;;;;13.40;8.23;;;7.70;93.20;;;;;;5054594;28;20726;-62
2021/04/29 03:27:23;;;;;;;9.40;7.43;;;7.70;93.30;;;;;;5054036;28;20218;-61
2021/04/29 03:29:51;;;;;;;10.77;6.20;;;7.80;93.10;;;;;;5050021;28;20429;-61
2021/04/29 03:32:18;;;;;;;10.60;6.90;;;7.70;93.20;;;;;;5052258;28;20201;-61
2021/04/29 03:34:45;;;;;;;12.13;7.80;;;7.80;93.10;;;;;;5051767;28;20208;-61
2021/04/29 03:37:12;;;;;;;8.93;6.38;;;7.80;93.30;;;;;;5053055;28;20398;-63
2021/04/29 03:39:38;;;;;;;10.65;7.40;;;7.80;93.10;;;;;;5057490;28;20207;-62
2021/04/29 03:42:06;;;;;;;9.32;8.20;;;7.90;92.90;;;;;;5051547;28;20214;-61
2021/04/29 03:44:35;;;;;;;10.90;8.48;;;7.90;93.00;;;;;;5056658;28;20588;-62
2021/04/29 03:47:03;;;;;;;6.80;6.10;;;7.80;93.10;;;;;;5054606;28;20215;-61
2021/04/29 03:49:31;;;;;;;8.18;7.25;;;7.90;93.00;;;;;;5056555;28;20227;-63
2021/04/29 03:51:57;;;;;;;7.35;6.43;;;8.00;92.90;;;;;;5058217;28;20239;-61
2021/04/29 03:54:25;;;;;;;11.23;7.32;;;8.00;92.70;;;;;;5057164;28;20200;-62
2021/04/29 03:56:53;;;;;;;10.07;8.50;;;8.00;92.70;;;;;;5058225;28;20203;-62
2021/04/29 03:59:20;;;;;;;5.07;4.57;;;8.10;92.60;;;;;;5061950;28;20215;-61
2021/04/29 04:01:46;;;;;;;7.13;6.50;;;8.10;92.70;;;;;;5060769;28;20207;-62
2021/04/29 04:04:13;;;;;;;6.05;5.10;;;8.10;92.70;;;;;;5060131;28;20424;-62
2021/04/29 04:06:40;;;;;;;10.35;8.05;;;8.20;92.70;;;;;;5062853;28;20389;-62
2021/04/29 04:09:06;;;;;;;14.38;7.93;;;8.30;92.60;;;;;;5062346;28;20231;-62
2021/04/29 04:11:33;;;;;;;9.70;7.55;;;8.30;92.50;;;;;;5063301;28;20218;-63
2021/04/29 04:13:59;;;;;;;14.02;7.88;;;8.30;92.50;;;;;;5062773;28;20207;-61
2021/04/29 04:16:26;;;;;;;8.10;6.80;;;8.50;92.30;;;;;;5060477;28;20212;-62
2021/04/29 04:18:53;;;;;;;6.82;6.18;;;8.60;92.20;;;;;;5062304;28;20360;-62
2021/04/29 04:21:20;;;;;;;8.23;6.85;;;8.70;92.00;;;;;;5061895;28;20205;-61
2021/04/29 04:23:46;;;;;;;7.25;6.55;;;8.80;91.70;;;;;;5058800;28;20217;-62
2021/04/29 04:26:13;;;;;;;12.80;9.30;;;8.90;91.70;;;;;;5063033;28;20205;-63
2021/04/29 04:28:40;;;;;;;8.38;7.55;;;8.90;91.90;;;;;;5059364;28;20220;-61
2021/04/29 04:31:07;;;;;;;14.15;7.35;;;9.00;91.70;;;;;;5062599;28;20211;-62
2021/04/29 04:33:34;;;;;;;7.85;7.07;;;9.10;91.60;;;;;;5060198;28;20223;-62
2021/04/29 04:36:01;;;;;;;7.82;6.95;;;9.10;91.50;;;;;;5062035;28;20205;-62
2021/04/29 04:38:28;;;;;;;7.63;6.93;;;9.20;91.10;;;;;;5063433;28;20568;-61
2021/04/29 04:40:55;;;;;;;14.25;8.55;;;9.20;91.10;;;;;;5059899;28;20220;-61
2021/04/29 04:43:23;;;;;;;7.22;6.55;;;9.20;91.20;;;;;;5061742;28;20208;-61
2021/04/29 04:45:50;;;;;;;11.27;9.40;;;9.30;91.00;;;;;;5062461;28;20228;-61
2021/04/29 04:48:17;;;;;;;6.70;6.05;;;9.50;90.70;;;;;;5062126;28;20230;-61
2021/04/29 04:50:44;;;;;;;10.07;8.18;;;9.30;91.10;;;;;;5061027;28;20208;-61
2021/04/29 04:53:11;;;;;;;7.65;7.05;;;9.20;91.20;;;;;;5054342;28;20432;-61
2021/04/29 04:55:44;;;;;;;7.95;7.15;;;9.20;91.40;;;;;;5059360;28;20212;-62
2021/04/29 04:58:10;;;;;;;10.27;7.22;;;9.30;91.20;;;;;;5062590;28;20212;-62
2021/04/29 05:00:37;;;;;;;7.95;7.20;;;9.40;91.30;;;;;;5062695;28;20209;-61
2021/04/29 05:03:04;;;;;;;9.68;7.13;;;9.60;91.10;;;;;;5062623;28;20210;-61
2021/04/29 05:05:31;;;;;;;9.13;7.43;;;9.80;90.80;;;;;;5062261;28;20206;-61
2021/04/29 05:08:00;;;;;;;10.30;7.95;;;10.00;90.50;;;;;;5058574;28;20211;-61
2021/04/29 05:10:30;;;;;;;10.23;8.13;;;10.20;90.50;;;;;;5050463;28;20206;-61
2021/04/29 05:13:00;;;;;;;10.82;7.82;;;10.40;90.20;;;;;;5055848;28;20215;-62
2021/04/29 05:15:26;;;;;;;11.23;8.77;;;10.50;89.60;;;;;;5052462;28;20440;-61
2021/04/29 05:17:53;;;;;;;9.77;8.52;;;10.60;89.80;;;;;;5062497;28;20223;-62
2021/04/29 05:20:20;;;;;;;8.82;6.88;;;10.60;89.50;;;;;;5063914;28;20209;-62
2021/04/29 05:22:47;;;;;;;8.95;8.07;;;10.80;89.60;;;;;;5070045;28;20202;-62
2021/04/29 05:25:14;;;;;;;11.18;6.85;;;10.80;89.60;;;;;;5049421;28;20211;-62
2021/04/29 05:27:41;;;;;;;11.00;9.38;;;10.80;89.60;;;;;;5041114;28;21331;-61
2021/04/29 05:30:08;;;;;;;10.27;6.95;;;10.80;89.90;;;;;;5048157;28;20234;-61
2021/04/29 05:32:35;;;;;;;8.70;7.90;;;10.80;90.20;;;;;;5051241;28;20222;-63
2021/04/29 05:35:02;;;;;;;9.52;7.82;;;10.90;90.20;;;;;;5062139;28;20272;-62
2021/04/29 05:37:28;;;;;;;9.25;7.55;;;11.30;90.00;;;;;;5064393;28;20475;-62
2021/04/29 05:39:55;;;;;;;11.13;7.75;;;11.70;88.50;;;;;;5053497;28;20276;-62
2021/04/29 05:42:21;;;;;;;9.32;8.07;;;11.60;88.80;;;;;;5058578;28;20250;-62
2021/04/29 05:44:48;;;;;;;9.27;8.20;;;11.80;88.80;;;;;;5047749;28;20235;-61
2021/04/29 05:47:15;;;;;;;8.55;7.10;;;11.90;88.60;;;;;;5047345;28;20200;-63
2021/04/29 05:49:43;;;;;;;8.45;7.72;;;12.10;88.30;;;;;;5052102;28;20235;-61
2021/04/29 05:52:10;;;;;;;8.13;7.32;;;12.40;87.50;;;;;;5058242;28;20223;-62
2021/04/29 05:54:37;;;;;;;14.52;9.32;;;12.70;86.70;;;;;;5059313;28;20559;-63
2021/04/29 05:57:05;;;;;;;8.98;8.07;;;12.80;86.60;;;;;;5043820;28;20213;-61
2021/04/29 05:59:33;;;;;;;13.13;8.13;;;13.00;86.50;;;;;;5008466;28;20495;-61
2021/04/29 06:02:00;;;;;;;12.65;9.55;;;13.40;85.90;;;;;;5034874;28;20461;-61
2021/04/29 06:04:43;;;;;;;9.60;8.60;;;13.60;84.60;;;;;;5049032;28;20215;-62
2021/04/29 06:07:15;;;;;;;8.05;7.45;;;13.70;84.90;;;;;;5057602;28;20208;-62
2021/04/29 06:09:59;;;;;;;7.95;7.30;;;13.60;85.00;;;;;;5057660;28;20548;-63
2021/04/29 06:12:25;;;;;;;10.77;8.30;;;13.50;85.50;;;;;;5056921;28;20268;-61
2021/04/29 06:14:53;;;;;;;9.20;8.30;;;13.50;86.30;;;;;;5058178;28;20214;-62
2021/04/29 06:17:19;;;;;;;9.77;8.30;;;13.80;85.10;;;;;;5058232;28;20200;-61
2021/04/29 06:19:47;;;;;;;8.93;8.02;;;13.70;85.60;;;;;;5046790;28;20234;-61
2021/04/29 06:22:13;;;;;;;10.40;9.40;;;13.70;86.20;;;;;;5064944;28;20230;-63
2021/04/29 06:24:44;;;;;;;9.93;9.05;;;13.70;86.50;;;;;;5058166;28;20284;-62
2021/04/29 06:27:12;;;;;;;13.30;10.77;;;13.90;86.30;;;;;;5055711;28;20211;-61
2021/04/29 06:29:39;;;;;;;9.38;8.50;;;14.10;87.00;;;;;;5057521;28;20230;-61
2021/04/29 06:32:10;;;;;;;10.77;7.53;;;14.30;85.70;;;;;;5056794;28;20206;-61
2021/04/29 06:34:39;;;;;;;9.63;8.68;;;14.70;84.40;;;;;;5058885;28;20205;-62
2021/04/29 06:37:06;;;;;;;8.30;7.45;;;14.90;83.90;;;;;;5045955;28;20240;-61
2021/04/29 06:39:36;;;;;;;8.45;7.25;;;14.70;84.40;;;;;;5056742;28;20270;-61
2021/04/29 06:42:05;;;;;;;8.65;7.35;;;14.90;84.50;;;;;;5050977;28;20213;-61
2021/04/29 06:44:32;;;;;;;8.50;7.50;;;15.00;84.40;;;;;;5058338;28;20252;-61
2021/04/29 06:46:59;;;;;;;10.03;9.13;;;15.60;82.70;;;;;;5059403;28;20443;-63
2021/04/29 06:49:29;;;;;;;8.07;7.47;;;15.60;82.30;;;;;;5053866;28;20486;-62
2021/04/29 06:51:56;;;;;;;9.20;8.40;;;15.30;83.40;;;;;;5052707;28;20795;-63
2021/04/29 06:54:24;;;;;;;9.80;7.60;;;15.40;84.20;;;;;;5056864;28;20206;-64
2021/04/29 06:56:53;;;;;;;8.43;7.63;;;15.60;83.40;;;;;;5055376;28;20441;-63
2021/04/29 06:59:22;;;;;;;9.97;8.97;;;15.90;83.10;;;;;;5052193;28;20625;-63
2021/04/29 07:01:50;;;;;;;11.03;8.40;;;15.90;82.60;;;;;;5041071;28;20768;-63
2021/04/29 07:04:17;;;;;;;8.20;7.40;;;15.70;83.10;;;;;;5041499;28;20766;-63
2021/04/29 07:06:44;;;;;;;9.73;8.77;;;15.60;84.70;;;;;;5047738;28;20434;-63
2021/04/29 07:09:11;;;;;;;8.75;7.95;;;15.30;85.30;;;;;;5063064;28;20492;-63
2021/04/29 07:11:37;;;;;;;9.90;8.83;;;15.40;85.90;;;;;;5041429;28;20206;-62
2021/04/29 07:14:11;;;;;;;9.43;8.60;;;15.70;85.00;;;;;;4993512;28;20445;-63
2021/04/29 07:16:38;;;;;;;7.97;7.27;;;16.50;82.70;;;;;;5023058;28;20494;-62
2021/04/29 07:19:05;;;;;;;9.77;8.80;;;18.20;77.30;;;;;;5047974;28;20484;-64
2021/04/29 07:21:32;;;;;;;8.23;7.43;;;20.10;68.30;;;;;;5051234;28;20618;-62
2021/04/29 07:23:59;;;;;;;10.40;9.40;;;21.90;60.00;;;;;;5059702;28;20659;-61
2021/04/29 07:26:26;;;;;;;10.67;9.80;;;22.20;56.80;;;;;;5050865;28;20780;-62
2021/04/29 07:28:52;;;;;;;10.40;8.70;;;21.30;58.50;;;;;;5039742;28;20513;-63
2021/04/29 07:31:27;;;;;;;9.87;8.27;;;20.80;59.60;;;;;;5038225;28;20417;-64
2021/04/29 07:34:15;;;;;;;8.93;8.13;;;19.70;62.00;;;;;;5031566;28;20431;-62
2021/04/29 07:36:42;;;;;;;8.83;8.03;;;18.50;66.90;;;;;;5041191;28;20436;-61
2021/04/29 07:39:08;;;;;;;9.57;8.83;;;18.00;68.80;;;;;;5048683;28;20434;-62
2021/04/29 07:41:37;;;;;;;8.13;7.43;;;17.80;70.70;;;;;;5054965;28;20779;-62
2021/04/29 07:44:05;;;;;;;8.47;7.70;;;18.00;70.30;;;;;;5039929;28;20468;-63
2021/04/29 07:46:32;;;;;;;8.30;7.70;;;18.20;70.40;;;;;;5052167;28;20468;-61
2021/04/29 07:49:00;;;;;;;9.30;8.40;;;18.00;71.00;;;;;;5058507;28;20488;-62
2021/04/29 07:51:26;;;;;;;9.30;8.50;;;17.90;72.40;;;;;;5070684;28;20449;-62
2021/04/29 07:53:53;;;;;;;9.27;8.40;;;17.70;74.10;;;;;;5054975;28;20439;-63
2021/04/29 07:56:28;;;;;;;8.23;7.57;;;17.40;75.90;;;;;;5050222;28;20471;-61
2021/04/29 07:58:57;;;;;;;8.00;7.40;;;17.00;76.70;;;;;;5043930;28;20672;-62
2021/04/29 08:01:27;;;;;;;7.17;6.60;;;16.80;77.20;;;;;;5047482;28;20416;-63
2021/04/29 08:04:01;;;;;;;7.13;6.63;;;16.70;78.20;;;;;;5050811;28;20464;-63
2021/04/29 08:06:28;;;;;;;7.43;6.87;;;16.60;78.00;;;;;;5062027;28;20981;-62
2021/04/29 08:08:57;;;;;;;8.97;8.07;;;16.50;77.60;;;;;;5061686;28;20561;-62
2021/04/29 08:11:24;;;;;;;6.07;5.57;;;16.50;77.60;;;;;;5069869;28;20435;-63
2021/04/29 08:13:54;;;;;;;7.27;6.77;;;16.50;78.60;;;;;;5051367;28;20609;-63
2021/04/29 08:16:22;;;;;;;7.27;6.53;;;16.70;78.20;;;;;;5055113;28;20466;-61
2021/04/29 08:18:54;;;;;;;10.43;7.80;;;16.80;78.00;;;;;;5049778;28;20457;-63
2021/04/29 08:21:42;;;;;;;6.27;5.87;;;16.90;78.20;;;;;;5044510;28;20442;-63
2021/04/29 08:24:09;;;;;;;7.23;6.50;;;17.00;78.40;;;;;;5048956;28;20779;-64
2021/04/29 08:26:37;;;;;;;6.80;6.30;;;16.90;78.80;;;;;;5045125;28;20412;-63
2021/04/29 08:29:05;;;;;;;7.93;7.20;;;16.80;79.60;;;;;;5045013;28;20533;-62
2021/04/29 08:31:33;;;;;;;6.63;6.03;;;17.10;79.10;;;;;;5044824;28;20425;-63
2021/04/29 08:34:00;;;;;;;6.50;5.90;;;17.20;78.30;;;;;;5037297;28;20512;-62
2021/04/29 08:36:30;;;;;;;7.57;6.93;;;17.50;78.40;;;;;;5038697;28;20419;-63
2021/04/29 08:39:00;;;;;;;6.87;6.37;;;17.90;76.70;;;;;;5040989;28;20524;-63
2021/04/29 08:41:27;;;;;;;9.70;7.80;;;18.50;74.50;;;;;;5038875;28;20503;-62
2021/04/29 08:43:53;;;;;;;7.00;6.40;;;18.90;73.70;;;;;;5045333;28;20465;-62
2021/04/29 08:46:20;;;;;;;6.67;6.17;;;19.40;70.90;;;;;;5045549;28;20630;-62
2021/04/29 08:48:55;;;;;;;7.23;6.53;;;20.50;65.80;;;;;;5045074;28;20623;-62
2021/04/29 08:51:23;;;;;;;8.97;8.23;;;21.30;62.40;;;;;;5044609;28;20500;-63
2021/04/29 08:53:50;;;;;;;7.60;6.97;;;21.30;60.90;;;;;;5042519;28;20408;-64
2021/04/29 08:56:23;;;;;;;7.90;7.30;;;21.90;59.30;;;;;;5045951;28;20438;-63
2021/04/29 08:58:51;;;;;;;8.17;7.57;;;23.40;56.10;;;;;;5049835;28;20453;-63
2021/04/29 09:01:19;;;;;;;7.87;7.37;;;25.20;51.10;;;;;;5051192;28;20423;-62
2021/04/29 09:03:46;;;;;;;8.13;7.43;;;24.80;49.80;;;;;;5043475;28;20443;-62
2021/04/29 09:06:14;;;;;;;7.57;7.00;;;25.30;48.40;;;;;;5047833;28;20473;-63
2021/04/29 09:08:42;;;;;;;8.33;7.73;;;25.90;47.80;;;;;;5044845;28;20447;-64
2021/04/29 09:11:15;;;;;;;8.50;8.00;;;26.80;46.10;;;;;;5056188;28;20599;-63
2021/04/29 09:14:00;;;;;;;10.13;9.17;;;27.00;44.10;;;;;;5053305;28;20511;-63
2021/04/29 09:16:43;;;;;;;8.70;8.10;;;26.80;44.30;;;;;;5058087;28;20419;-63
2021/04/29 09:19:22;;;;;;;8.43;7.90;;;28.10;42.00;;;;;;5057415;28;20426;-62
2021/04/29 09:21:49;;;;;;;9.23;8.63;;;27.30;43.20;;;;;;5060160;28;20473;-62
2021/04/29 09:24:16;;;;;;;8.50;7.90;;;26.10;45.30;;;;;;5059101;28;20904;-63
2021/04/29 09:26:43;;;;;;;8.80;8.10;;;25.50;47.00;;;;;;5055961;28;20427;-64
2021/04/29 09:29:13;;;;;;;9.37;8.63;;;24.90;48.90;;;;;;5044634;28;20456;-63
2021/04/29 09:31:46;;;;;;;9.30;8.70;;;24.70;49.30;;;;;;5054654;28;20415;-61
2021/04/29 09:34:18;;;;;;;8.53;7.77;;;23.50;51.60;;;;;;5048525;28;20444;-62
2021/04/29 09:36:46;;;;;;;9.77;8.90;;;23.60;51.70;;;;;;5058962;28;20440;-62
2021/04/29 09:39:19;;;;;;;7.80;7.30;;;23.80;50.80;;;;;;5058879;28;20439;-63
2021/04/29 09:41:51;;;;;;;7.57;6.90;;;23.70;50.60;;;;;;5049331;28;20630;-65
2021/04/29 09:44:20;;;;;;;9.20;8.47;;;23.30;52.30;;;;;;5054548;28;20504;-62
2021/04/29 09:46:49;;;;;;;7.43;6.83;;;23.20;54.90;;;;;;5044908;28;20416;-63
2021/04/29 09:49:34;;;;;;;8.50;7.90;;;23.40;54.30;;;;;;5050587;28;20458;-62
2021/04/29 09:52:26;;;;;;;8.33;7.67;;;23.50;55.70;;;;;;5055602;28;20468;-62
2021/04/29 09:54:54;;;;;;;9.23;8.43;;;23.30;56.90;;;;;;5058753;28;20452;-63
2021/04/29 09:57:28;;;;;;;7.77;7.17;;;23.00;61.90;;;;;;5058155;28;20609;-63
2021/04/29 09:59:58;;;;;;;8.77;8.07;;;22.80;59.70;;;;;;5058695;28;20684;-63
2021/04/29 10:02:28;;;;;;;8.33;7.63;;;22.60;59.90;;;;;;5050561;28;20442;-62
2021/04/29 10:04:55;;;;;;;7.90;7.30;;;22.10;59.50;;;;;;5039596;28;20726;-63
2021/04/29 10:07:24;;;;;;;9.43;8.03;;;21.90;62.50;;;;;;5047344;28;20438;-61
2021/04/29 10:09:52;;;;;;;9.50;8.13;;;21.50;60.70;;;;;;5058699;28;20505;-62
2021/04/29 10:12:28;;;;;;;9.37;8.47;;;21.00;63.30;;;;;;5053761;28;20594;-63
2021/04/29 10:14:57;;;;;;;8.13;7.43;;;20.90;67.20;;;;;;5044518;28;20416;-63
2021/04/29 10:17:25;;;;;;;6.90;6.47;;;20.60;67.90;;;;;;5045035;28;20750;-62
2021/04/29 10:19:59;;;;;;;8.57;7.87;;;20.30;74.00;;;;;;5041334;28;20428;-63
2021/04/29 10:22:28;;;;;;;7.57;6.87;;;20.00;77.30;;;;;;5043694;28;20474;-63
2021/04/29 10:25:00;;;;;;;8.27;7.47;;;19.70;80.10;;;;;;5039283;28;20416;-63
2021/04/29 10:27:30;;;;;;;7.30;5.97;;;19.20;80.70;;;;;;5040926;28;20446;-63
2021/04/29 10:30:09;;;;;;;8.77;7.43;;;18.80;91.90;;;;;;5039258;28;20485;-64
2021/04/29 10:32:39;;;;;;;8.60;6.30;;;18.20;91.10;;;;;;5035831;28;20420;-63
2021/04/29 10:35:18;;;;;;;9.07;5.77;;;17.70;91.80;;;;;;5042509;28;20452;-64
2021/04/29 10:38:05;;;;;;;6.67;5.30;;;17.40;95.90;;;;;;5040026;28;20599;-64
2021/04/29 10:40:37;;;;;;;6.47;5.20;;;17.50;94.80;;;;;;5054494;28;20435;-64
2021/04/29 10:43:06;;;;;;;7.10;5.30;;;17.70;94.80;;;;;;5045148;28;20429;-64
2021/04/29 10:45:33;;;;;;;7.67;6.37;;;18.20;92.80;;;;;;5040970;28;20470;-65
2021/04/29 10:48:10;;;;;;;7.33;6.60;;;18.30;92.20;;;;;;5043706;28;20808;-64
2021/04/29 10:50:47;;;;;;;6.83;6.00;;;18.30;91.60;;;;;;5043599;28;20491;-65
2021/04/29 10:53:27;;;;;;;8.37;6.17;;;18.70;91.90;;;;;;5041546;28;20468;-63
2021/04/29 10:56:11;;;;;;;9.40;6.80;;;18.80;90.10;;;;;;5042350;28;20409;-64
2021/04/29 10:58:38;;;;;;;6.50;5.90;;;19.30;89.90;;;;;;5041456;28;20436;-65
2021/04/29 11:01:18;;;;;;;9.90;7.20;;;19.30;86.20;;;;;;5040471;28;20420;-65
2021/04/29 11:03:50;;;;;;;8.73;7.83;;;19.40;85.40;;;;;;5053245;28;20407;-65
2021/04/29 11:06:33;;;;;;;9.00;7.70;;;19.50;82.80;;;;;;5051605;28;20419;-65
2021/04/29 11:09:01;;;;;;;8.10;7.30;;;19.90;79.40;;;;;;5057165;28;20459;-64
2021/04/29 11:11:34;;;;;;;8.33;7.53;;;19.90;78.60;;;;;;5050088;28;20415;-64
2021/04/29 11:14:16;;;;;;;8.03;7.17;;;20.30;79.10;;;;;;5055120;28;20758;-65
2021/04/29 11:16:47;;;;;;;9.13;8.23;;;20.50;77.80;;;;;;5056778;28;20564;-64
2021/04/29 11:19:40;;;;;;;9.30;8.30;;;20.70;74.10;;;;;;5051920;28;20423;-65
2021/04/29 11:22:13;;;;;;;9.23;8.43;;;20.90;76.10;;;;;;5054167;28;20414;-64
2021/04/29 11:24:46;;;;;;;8.60;7.80;;;20.90;73.50;;;;;;5043828;28;20424;-62
2021/04/29 11:27:24;;;;;;;8.60;7.87;;;21.20;72.70;;;;;;5035959;28;20830;-63
2021/04/29 11:30:01;;;;;;;9.90;9.10;;;21.60;68.30;;;;;;5056615;28;20547;-62
2021/04/29 11:32:34;;;;;;;8.67;7.73;;;21.90;67.70;;;;;;5055604;28;20409;-64
2021/04/29 11:35:18;;;;;;;9.93;9.03;;;21.80;66.80;;;;;;5038351;28;20421;-63
2021/04/29 11:37:46;;;;;;;11.87;9.07;;;21.50;68.20;;;;;;5045700;28;20420;-65
2021/04/29 11:40:14;;;;;;;9.27;8.53;;;21.70;68.70;;;;;;5056335;28;20448;-63
2021/04/29 11:42:45;;;;;;;7.90;7.23;;;21.80;68.00;;;;;;5052372;28;20507;-63
2021/04/29 11:45:12;;;;;;;9.40;8.50;;;21.90;66.40;;;;;;5055866;28;20430;-63
2021/04/29 11:47:52;;;;;;;8.33;7.63;;;22.10;63.50;;;;;;5045075;28;20514;-63
2021/04/29 11:50:31;;;;;;;9.50;8.70;;;22.30;62.10;;;;;;5041819;28;20536;-64
2021/04/29 11:53:15;;;;;;;7.93;7.40;;;22.50;61.80;;;;;;5040614;28;20826;-63
2021/04/29 11:55:44;;;;;;;8.63;7.97;;;22.60;60.70;;;;;;5047665;28;20785;-63
2021/04/29 11:58:13;;;;;;;8.10;7.40;;;22.80;59.80;;;;;;5039499;28;20472;-63
2021/04/29 12:00:46;;;;;;;7.87;7.27;;;22.80;58.60;;;;;;5041761;28;20509;-63
2021/04/29 12:03:20;;;;;;;7.77;7.17;;;22.80;58.70;;;;;;5037656;28;20743;-63
2021/04/29 12:05:53;;;;;;;9.00;8.27;;;22.40;59.10;;;;;;5042591;28;20932;-64
2021/04/29 12:08:21;;;;;;;8.67;8.07;;;22.00;60.00;;;;;;5040771;28;20454;-63
2021/04/29 12:10:53;;;;;;;8.37;7.53;;;21.50;61.80;;;;;;5045188;28;20465;-63
2021/04/29 12:13:40;;;;;;;9.80;8.70;;;21.80;62.30;;;;;;5043711;28;20746;-63
2021/04/29 12:16:24;;;;;;;8.43;7.83;;;22.10;61.00;;;;;;5056820;28;20419;-64
2021/04/29 12:18:55;;;;;;;8.73;8.03;;;22.70;60.20;;;;;;5047867;28;20415;-63
2021/04/29 12:21:32;;;;;;;9.80;9.00;;;22.70;58.60;;;;;;5047284;28;20448;-62
2021/04/29 12:24:11;;;;;;;9.30;8.50;;;22.80;58.70;;;;;;5051124;28;20433;-63
2021/04/29 12:26:40;;;;;;;9.17;8.53;;;22.90;59.60;;;;;;5050023;28;20478;-63
2021/04/29 12:29:10;;;;;;;9.07;8.37;;;23.00;58.00;;;;;;5046753;28;20684;-63
2021/04/29 12:31:38;;;;;;;9.07;8.27;;;23.30;57.70;;;;;;5045979;28;20412;-63
2021/04/29 12:34:14;;;;;;;8.40;7.77;;;23.70;56.80;;;;;;5046039;28;20755;-63
2021/04/29 12:36:51;;;;;;;9.23;8.50;;;23.60;56.20;;;;;;5041066;28;20408;-63
2021/04/29 12:39:20;;;;;;;10.20;9.37;;;23.40;56.90;;;;;;5044744;28;20415;-63
2021/04/29 12:42:09;;;;;;;10.87;9.77;;;23.10;57.80;;;;;;5050786;28;20458;-64
2021/04/29 12:44:43;;;;;;;9.07;8.37;;;22.40;58.50;;;;;;5046258;28;20470;-64
2021/04/29 12:47:12;;;;;;;8.70;8.10;;;22.10;59.50;;;;;;5047845;28;20465;-63
2021/04/29 12:49:43;;;;;;;8.90;8.20;;;22.00;59.60;;;;;;5041557;28;20463;-63
2021/04/29 12:52:12;;;;;;;7.90;7.33;;;21.90;60.20;;;;;;5047648;28;20503;-63
2021/04/29 12:54:40;;;;;;;8.33;7.73;;;22.10;60.50;;;;;;5036525;28;20785;-64
2021/04/29 12:57:07;;;;;;;8.30;7.60;;;22.50;59.50;;;;;;5048717;28;20439;-63
2021/04/29 12:59:46;;;;;;;8.63;8.03;;;22.70;58.20;;;;;;5050259;28;20461;-63
2021/04/29 13:02:12;;;;;;;8.53;7.83;;;22.80;58.10;;;;;;5042831;28;20440;-64